sensor_id;sensor_type;location;lat;lon;timestamp;P1;durP1;ratioP1;P2;durP2;ratioP2
10985;SDS011;5546;48.714;8.738;2022-10-14T00:00:12;13.30;;;7.23;;
10985;SDS011;5546;48.714;8.738;2022-10-14T00:02:38;11.43;;;7.17;;
10985;SDS011;5546;48.714;8.738;2022-10-14T00:05:03;8.47;;;6.87;;
10985;SDS011;5546;48.714;8.738;2022-10-14T00:07:29;11.23;;;7.50;;
10985;SDS011;5546;48.714;8.738;2022-10-14T00:09:55;12.50;;;7.40;;
10985;SDS011;5546;48.714;8.738;2022-10-14T00:12:20;11.27;;;8.03;;
10985;SDS011;5546;48.714;8.738;2022-10-14T00:14:46;14.27;;;7.83;;
10985;SDS011;5546;48.714;8.738;2022-10-14T00:17:11;15.53;;;8.50;;
10985;SDS011;5546;48.714;8.738;2022-10-14T00:19:37;14.33;;;7.57;;
10985;SDS011;5546;48.714;8.738;2022-10-14T00:22:02;13.70;;;7.40;;
10985;SDS011;5546;48.714;8.738;2022-10-14T00:24:28;8.93;;;7.10;;
10985;SDS011;5546;48.714;8.738;2022-10-14T00:26:53;11.37;;;7.27;;
10985;SDS011;5546;48.714;8.738;2022-10-14T00:29:19;15.33;;;7.50;;
10985;SDS011;5546;48.714;8.738;2022-10-14T00:31:45;14.03;;;6.90;;
10985;SDS011;5546;48.714;8.738;2022-10-14T00:34:11;12.37;;;7.00;;
10985;SDS011;5546;48.714;8.738;2022-10-14T00:36:39;11.33;;;6.83;;
10985;SDS011;5546;48.714;8.738;2022-10-14T00:39:05;11.10;;;6.63;;
10985;SDS011;5546;48.714;8.738;2022-10-14T00:41:31;10.87;;;7.10;;
10985;SDS011;5546;48.714;8.738;2022-10-14T00:43:59;12.60;;;7.00;;
10985;SDS011;5546;48.714;8.738;2022-10-14T00:46:32;12.40;;;6.30;;
10985;SDS011;5546;48.714;8.738;2022-10-14T00:49:05;11.30;;;6.90;;
10985;SDS011;5546;48.714;8.738;2022-10-14T00:51:34;10.07;;;6.87;;
10985;SDS011;5546;48.714;8.738;2022-10-14T00:54:01;14.20;;;6.73;;
10985;SDS011;5546;48.714;8.738;2022-10-14T00:56:27;8.93;;;6.33;;
10985;SDS011;5546;48.714;8.738;2022-10-14T00:58:54;11.33;;;6.60;;
10985;SDS011;5546;48.714;8.738;2022-10-14T01:01:20;13.93;;;7.23;;
10985;SDS011;5546;48.714;8.738;2022-10-14T01:03:46;10.50;;;6.87;;
10985;SDS011;5546;48.714;8.738;2022-10-14T01:06:22;12.70;;;6.50;;
10985;SDS011;5546;48.714;8.738;2022-10-14T01:09:03;8.90;;;6.77;;
10985;SDS011;5546;48.714;8.738;2022-10-14T01:26:05;7.37;;;5.90;;
10985;SDS011;5546;48.714;8.738;2022-10-14T01:29:11;8.67;;;7.07;;
10985;SDS011;5546;48.714;8.738;2022-10-14T01:32:03;15.70;;;7.30;;
10985;SDS011;5546;48.714;8.738;2022-10-14T01:34:35;9.90;;;7.00;;
10985;SDS011;5546;48.714;8.738;2022-10-14T01:37:10;10.90;;;7.03;;
10985;SDS011;5546;48.714;8.738;2022-10-14T01:39:45;11.87;;;7.13;;
10985;SDS011;5546;48.714;8.738;2022-10-14T01:42:21;12.83;;;8.20;;
10985;SDS011;5546;48.714;8.738;2022-10-14T01:44:54;14.93;;;7.50;;
10985;SDS011;5546;48.714;8.738;2022-10-14T01:47:23;11.60;;;7.33;;
10985;SDS011;5546;48.714;8.738;2022-10-14T01:49:57;13.80;;;7.03;;
10985;SDS011;5546;48.714;8.738;2022-10-14T01:52:36;9.90;;;6.77;;
10985;SDS011;5546;48.714;8.738;2022-10-14T01:55:08;12.97;;;7.30;;
10985;SDS011;5546;48.714;8.738;2022-10-14T01:57:39;10.10;;;6.90;;
10985;SDS011;5546;48.714;8.738;2022-10-14T02:00:07;12.00;;;6.83;;
10985;SDS011;5546;48.714;8.738;2022-10-14T02:02:36;9.40;;;5.93;;
10985;SDS011;5546;48.714;8.738;2022-10-14T02:05:06;9.93;;;5.80;;
10985;SDS011;5546;48.714;8.738;2022-10-14T02:07:39;7.13;;;5.27;;
10985;SDS011;5546;48.714;8.738;2022-10-14T02:12:57;6.40;;;5.60;;
10985;SDS011;5546;48.714;8.738;2022-10-14T02:21:36;7.37;;;5.47;;
10985;SDS011;5546;48.714;8.738;2022-10-14T02:24:09;9.23;;;5.80;;
10985;SDS011;5546;48.714;8.738;2022-10-14T02:26:43;9.60;;;6.00;;
10985;SDS011;5546;48.714;8.738;2022-10-14T02:29:10;9.50;;;5.97;;
10985;SDS011;5546;48.714;8.738;2022-10-14T02:31:36;12.60;;;5.93;;
10985;SDS011;5546;48.714;8.738;2022-10-14T02:34:05;8.17;;;6.00;;
10985;SDS011;5546;48.714;8.738;2022-10-14T02:36:34;15.90;;;5.87;;
10985;SDS011;5546;48.714;8.738;2022-10-14T02:39:00;7.90;;;6.10;;
10985;SDS011;5546;48.714;8.738;2022-10-14T02:41:29;11.10;;;5.67;;
10985;SDS011;5546;48.714;8.738;2022-10-14T02:43:58;9.73;;;6.17;;
10985;SDS011;5546;48.714;8.738;2022-10-14T02:46:24;14.63;;;6.07;;
10985;SDS011;5546;48.714;8.738;2022-10-14T02:48:50;11.43;;;6.30;;
10985;SDS011;5546;48.714;8.738;2022-10-14T02:51:15;14.50;;;6.60;;
10985;SDS011;5546;48.714;8.738;2022-10-14T02:53:41;9.17;;;5.63;;
10985;SDS011;5546;48.714;8.738;2022-10-14T02:56:07;9.03;;;5.77;;
10985;SDS011;5546;48.714;8.738;2022-10-14T02:58:32;10.77;;;5.83;;
10985;SDS011;5546;48.714;8.738;2022-10-14T03:00:58;7.73;;;5.70;;
10985;SDS011;5546;48.714;8.738;2022-10-14T03:03:24;10.23;;;6.57;;
10985;SDS011;5546;48.714;8.738;2022-10-14T03:05:49;16.17;;;6.30;;
10985;SDS011;5546;48.714;8.738;2022-10-14T03:08:15;14.20;;;5.50;;
10985;SDS011;5546;48.714;8.738;2022-10-14T03:10:40;11.63;;;6.70;;
10985;SDS011;5546;48.714;8.738;2022-10-14T03:13:09;11.23;;;5.97;;
10985;SDS011;5546;48.714;8.738;2022-10-14T03:15:34;9.50;;;6.53;;
10985;SDS011;5546;48.714;8.738;2022-10-14T03:18:00;8.10;;;5.40;;
10985;SDS011;5546;48.714;8.738;2022-10-14T03:20:25;8.83;;;6.00;;
10985;SDS011;5546;48.714;8.738;2022-10-14T03:22:51;8.93;;;5.23;;
10985;SDS011;5546;48.714;8.738;2022-10-14T03:25:17;8.47;;;5.47;;
10985;SDS011;5546;48.714;8.738;2022-10-14T03:27:43;10.20;;;6.00;;
10985;SDS011;5546;48.714;8.738;2022-10-14T03:30:08;9.10;;;5.70;;
10985;SDS011;5546;48.714;8.738;2022-10-14T03:32:34;10.47;;;5.63;;
10985;SDS011;5546;48.714;8.738;2022-10-14T03:34:59;9.23;;;6.47;;
10985;SDS011;5546;48.714;8.738;2022-10-14T03:37:25;12.37;;;6.80;;
10985;SDS011;5546;48.714;8.738;2022-10-14T03:39:50;15.20;;;6.23;;
10985;SDS011;5546;48.714;8.738;2022-10-14T03:42:17;8.43;;;6.03;;
10985;SDS011;5546;48.714;8.738;2022-10-14T03:44:42;12.13;;;5.97;;
10985;SDS011;5546;48.714;8.738;2022-10-14T03:47:08;12.33;;;7.03;;
10985;SDS011;5546;48.714;8.738;2022-10-14T03:49:34;11.97;;;6.97;;
10985;SDS011;5546;48.714;8.738;2022-10-14T03:51:59;19.73;;;7.20;;
10985;SDS011;5546;48.714;8.738;2022-10-14T03:54:25;8.90;;;6.53;;
10985;SDS011;5546;48.714;8.738;2022-10-14T03:56:50;8.40;;;6.73;;
10985;SDS011;5546;48.714;8.738;2022-10-14T03:59:16;11.90;;;6.87;;
10985;SDS011;5546;48.714;8.738;2022-10-14T04:01:41;9.47;;;6.80;;
10985;SDS011;5546;48.714;8.738;2022-10-14T04:04:07;7.93;;;6.00;;
10985;SDS011;5546;48.714;8.738;2022-10-14T04:06:32;12.13;;;6.33;;
10985;SDS011;5546;48.714;8.738;2022-10-14T04:08:58;7.53;;;5.60;;
10985;SDS011;5546;48.714;8.738;2022-10-14T04:11:23;11.97;;;6.27;;
10985;SDS011;5546;48.714;8.738;2022-10-14T04:13:49;10.70;;;6.50;;
10985;SDS011;5546;48.714;8.738;2022-10-14T04:16:14;9.73;;;6.40;;
10985;SDS011;5546;48.714;8.738;2022-10-14T04:18:40;10.40;;;5.80;;
10985;SDS011;5546;48.714;8.738;2022-10-14T04:21:08;11.43;;;6.30;;
10985;SDS011;5546;48.714;8.738;2022-10-14T04:23:35;11.80;;;6.10;;
10985;SDS011;5546;48.714;8.738;2022-10-14T04:26:07;11.13;;;5.33;;
10985;SDS011;5546;48.714;8.738;2022-10-14T04:28:33;7.67;;;6.20;;
10985;SDS011;5546;48.714;8.738;2022-10-14T04:30:59;6.67;;;5.50;;
10985;SDS011;5546;48.714;8.738;2022-10-14T04:33:25;8.10;;;6.40;;
10985;SDS011;5546;48.714;8.738;2022-10-14T04:35:55;6.17;;;5.53;;
10985;SDS011;5546;48.714;8.738;2022-10-14T04:38:22;7.00;;;6.07;;
10985;SDS011;5546;48.714;8.738;2022-10-14T04:40:48;11.77;;;6.20;;
10985;SDS011;5546;48.714;8.738;2022-10-14T04:43:13;11.83;;;6.40;;
10985;SDS011;5546;48.714;8.738;2022-10-14T04:45:39;10.13;;;6.20;;
10985;SDS011;5546;48.714;8.738;2022-10-14T04:48:05;12.30;;;6.77;;
10985;SDS011;5546;48.714;8.738;2022-10-14T04:50:31;9.97;;;6.93;;
10985;SDS011;5546;48.714;8.738;2022-10-14T04:52:56;13.83;;;6.40;;
10985;SDS011;5546;48.714;8.738;2022-10-14T04:55:22;10.90;;;6.20;;
10985;SDS011;5546;48.714;8.738;2022-10-14T04:57:47;8.20;;;6.20;;
10985;SDS011;5546;48.714;8.738;2022-10-14T05:00:13;8.30;;;6.33;;
10985;SDS011;5546;48.714;8.738;2022-10-14T05:02:39;8.60;;;5.70;;
10985;SDS011;5546;48.714;8.738;2022-10-14T05:05:05;7.93;;;6.33;;
10985;SDS011;5546;48.714;8.738;2022-10-14T05:07:31;11.73;;;6.23;;
10985;SDS011;5546;48.714;8.738;2022-10-14T05:09:57;7.73;;;5.83;;
10985;SDS011;5546;48.714;8.738;2022-10-14T05:12:23;8.37;;;6.47;;
10985;SDS011;5546;48.714;8.738;2022-10-14T05:14:49;11.43;;;6.50;;
10985;SDS011;5546;48.714;8.738;2022-10-14T05:17:14;10.27;;;6.17;;
10985;SDS011;5546;48.714;8.738;2022-10-14T05:19:40;9.67;;;6.33;;
10985;SDS011;5546;48.714;8.738;2022-10-14T05:22:05;8.47;;;6.83;;
10985;SDS011;5546;48.714;8.738;2022-10-14T05:24:31;14.63;;;6.73;;
10985;SDS011;5546;48.714;8.738;2022-10-14T05:26:56;8.70;;;6.83;;
10985;SDS011;5546;48.714;8.738;2022-10-14T05:29:22;10.63;;;7.07;;
10985;SDS011;5546;48.714;8.738;2022-10-14T05:31:47;10.43;;;7.33;;
10985;SDS011;5546;48.714;8.738;2022-10-14T05:34:12;10.27;;;7.60;;
10985;SDS011;5546;48.714;8.738;2022-10-14T05:36:38;10.43;;;7.60;;
10985;SDS011;5546;48.714;8.738;2022-10-14T05:39:07;10.93;;;7.07;;
10985;SDS011;5546;48.714;8.738;2022-10-14T05:41:33;8.57;;;6.40;;
10985;SDS011;5546;48.714;8.738;2022-10-14T05:43:58;9.40;;;6.13;;
10985;SDS011;5546;48.714;8.738;2022-10-14T05:46:24;8.97;;;6.20;;
10985;SDS011;5546;48.714;8.738;2022-10-14T05:48:49;11.43;;;6.27;;
10985;SDS011;5546;48.714;8.738;2022-10-14T05:51:15;9.37;;;6.87;;
10985;SDS011;5546;48.714;8.738;2022-10-14T05:53:40;8.77;;;6.63;;
10985;SDS011;5546;48.714;8.738;2022-10-14T05:56:08;9.73;;;6.73;;
10985;SDS011;5546;48.714;8.738;2022-10-14T05:58:33;11.57;;;6.50;;
10985;SDS011;5546;48.714;8.738;2022-10-14T06:01:03;6.10;;;5.40;;
10985;SDS011;5546;48.714;8.738;2022-10-14T06:03:30;8.37;;;5.77;;
10985;SDS011;5546;48.714;8.738;2022-10-14T06:05:55;9.47;;;6.87;;
10985;SDS011;5546;48.714;8.738;2022-10-14T06:08:22;11.00;;;6.63;;
10985;SDS011;5546;48.714;8.738;2022-10-14T06:10:48;11.00;;;6.23;;
10985;SDS011;5546;48.714;8.738;2022-10-14T06:13:14;9.07;;;5.60;;
10985;SDS011;5546;48.714;8.738;2022-10-14T06:15:40;7.43;;;6.50;;
10985;SDS011;5546;48.714;8.738;2022-10-14T06:18:05;9.47;;;6.20;;
10985;SDS011;5546;48.714;8.738;2022-10-14T06:20:31;8.70;;;6.17;;
10985;SDS011;5546;48.714;8.738;2022-10-14T06:23:00;7.77;;;6.13;;
10985;SDS011;5546;48.714;8.738;2022-10-14T06:25:26;9.10;;;6.53;;
10985;SDS011;5546;48.714;8.738;2022-10-14T06:27:52;8.77;;;5.90;;
10985;SDS011;5546;48.714;8.738;2022-10-14T06:30:17;7.37;;;5.97;;
10985;SDS011;5546;48.714;8.738;2022-10-14T06:32:43;7.77;;;5.93;;
10985;SDS011;5546;48.714;8.738;2022-10-14T06:35:08;9.50;;;5.90;;
10985;SDS011;5546;48.714;8.738;2022-10-14T06:37:34;6.67;;;5.80;;
10985;SDS011;5546;48.714;8.738;2022-10-14T06:40:00;11.70;;;5.80;;
10985;SDS011;5546;48.714;8.738;2022-10-14T06:42:26;8.77;;;5.87;;
10985;SDS011;5546;48.714;8.738;2022-10-14T06:44:51;9.30;;;5.87;;
10985;SDS011;5546;48.714;8.738;2022-10-14T06:47:17;9.87;;;6.00;;
10985;SDS011;5546;48.714;8.738;2022-10-14T06:49:42;8.60;;;5.80;;
10985;SDS011;5546;48.714;8.738;2022-10-14T06:52:08;6.70;;;5.57;;
10985;SDS011;5546;48.714;8.738;2022-10-14T06:54:33;9.50;;;6.27;;
10985;SDS011;5546;48.714;8.738;2022-10-14T06:56:59;6.83;;;5.37;;
10985;SDS011;5546;48.714;8.738;2022-10-14T06:59:24;8.30;;;5.73;;
10985;SDS011;5546;48.714;8.738;2022-10-14T07:01:52;8.67;;;5.57;;
10985;SDS011;5546;48.714;8.738;2022-10-14T07:04:18;8.53;;;4.70;;
10985;SDS011;5546;48.714;8.738;2022-10-14T07:06:43;7.53;;;5.73;;
10985;SDS011;5546;48.714;8.738;2022-10-14T07:09:09;7.77;;;5.17;;
10985;SDS011;5546;48.714;8.738;2022-10-14T07:11:34;7.80;;;5.57;;
10985;SDS011;5546;48.714;8.738;2022-10-14T07:14:00;9.70;;;5.70;;
10985;SDS011;5546;48.714;8.738;2022-10-14T07:16:25;9.30;;;5.70;;
10985;SDS011;5546;48.714;8.738;2022-10-14T07:18:52;8.13;;;5.77;;
10985;SDS011;5546;48.714;8.738;2022-10-14T07:21:18;6.70;;;5.47;;
10985;SDS011;5546;48.714;8.738;2022-10-14T07:23:44;10.80;;;5.47;;
10985;SDS011;5546;48.714;8.738;2022-10-14T07:26:09;6.60;;;4.77;;
10985;SDS011;5546;48.714;8.738;2022-10-14T07:28:35;8.47;;;4.73;;
10985;SDS011;5546;48.714;8.738;2022-10-14T07:31:07;7.33;;;5.47;;
10985;SDS011;5546;48.714;8.738;2022-10-14T07:33:35;8.13;;;5.07;;
10985;SDS011;5546;48.714;8.738;2022-10-14T07:36:02;7.20;;;4.90;;
10985;SDS011;5546;48.714;8.738;2022-10-14T07:38:32;4.97;;;4.47;;
10985;SDS011;5546;48.714;8.738;2022-10-14T07:40:59;7.63;;;4.83;;
10985;SDS011;5546;48.714;8.738;2022-10-14T07:43:29;6.47;;;4.27;;
10985;SDS011;5546;48.714;8.738;2022-10-14T07:45:59;7.90;;;4.70;;
10985;SDS011;5546;48.714;8.738;2022-10-14T07:48:30;5.40;;;4.70;;
10985;SDS011;5546;48.714;8.738;2022-10-14T07:50:56;10.87;;;4.57;;
10985;SDS011;5546;48.714;8.738;2022-10-14T07:53:22;8.03;;;4.40;;
10985;SDS011;5546;48.714;8.738;2022-10-14T07:55:49;7.83;;;4.83;;
10985;SDS011;5546;48.714;8.738;2022-10-14T07:58:19;9.50;;;4.67;;
10985;SDS011;5546;48.714;8.738;2022-10-14T08:00:46;7.53;;;4.60;;
10985;SDS011;5546;48.714;8.738;2022-10-14T08:03:13;7.33;;;4.60;;
10985;SDS011;5546;48.714;8.738;2022-10-14T08:05:38;7.37;;;5.57;;
10985;SDS011;5546;48.714;8.738;2022-10-14T08:08:05;7.83;;;4.90;;
10985;SDS011;5546;48.714;8.738;2022-10-14T08:10:31;6.77;;;5.27;;
10985;SDS011;5546;48.714;8.738;2022-10-14T08:12:56;8.63;;;5.40;;
10985;SDS011;5546;48.714;8.738;2022-10-14T08:15:22;5.90;;;4.57;;
10985;SDS011;5546;48.714;8.738;2022-10-14T08:17:52;8.20;;;4.10;;
10985;SDS011;5546;48.714;8.738;2022-10-14T08:20:18;4.70;;;4.10;;
10985;SDS011;5546;48.714;8.738;2022-10-14T08:22:44;6.27;;;4.60;;
10985;SDS011;5546;48.714;8.738;2022-10-14T08:25:09;4.93;;;4.33;;
10985;SDS011;5546;48.714;8.738;2022-10-14T08:27:35;8.13;;;4.40;;
10985;SDS011;5546;48.714;8.738;2022-10-14T08:30:00;8.57;;;4.00;;
10985;SDS011;5546;48.714;8.738;2022-10-14T08:32:26;8.40;;;4.37;;
10985;SDS011;5546;48.714;8.738;2022-10-14T08:34:51;6.20;;;4.63;;
10985;SDS011;5546;48.714;8.738;2022-10-14T08:37:17;7.67;;;4.43;;
10985;SDS011;5546;48.714;8.738;2022-10-14T08:39:42;6.57;;;4.40;;
10985;SDS011;5546;48.714;8.738;2022-10-14T08:45:09;6.23;;;4.47;;
10985;SDS011;5546;48.714;8.738;2022-10-14T08:48:03;5.43;;;4.23;;
10985;SDS011;5546;48.714;8.738;2022-10-14T08:50:37;5.07;;;4.10;;
10985;SDS011;5546;48.714;8.738;2022-10-14T08:53:17;10.37;;;5.70;;
10985;SDS011;5546;48.714;8.738;2022-10-14T09:00:48;6.17;;;4.20;;
10985;SDS011;5546;48.714;8.738;2022-10-14T09:03:25;5.30;;;4.07;;
10985;SDS011;5546;48.714;8.738;2022-10-14T09:06:04;7.00;;;4.03;;
10985;SDS011;5546;48.714;8.738;2022-10-14T09:08:43;6.33;;;4.00;;
10985;SDS011;5546;48.714;8.738;2022-10-14T09:11:12;6.10;;;4.20;;
10985;SDS011;5546;48.714;8.738;2022-10-14T09:13:41;6.73;;;4.20;;
10985;SDS011;5546;48.714;8.738;2022-10-14T09:16:15;6.17;;;3.80;;
10985;SDS011;5546;48.714;8.738;2022-10-14T09:18:45;6.47;;;3.50;;
10985;SDS011;5546;48.714;8.738;2022-10-14T09:21:33;6.37;;;4.00;;
10985;SDS011;5546;48.714;8.738;2022-10-14T09:24:01;5.60;;;3.73;;
10985;SDS011;5546;48.714;8.738;2022-10-14T09:26:41;7.80;;;3.67;;
10985;SDS011;5546;48.714;8.738;2022-10-14T09:29:23;6.00;;;4.60;;
10985;SDS011;5546;48.714;8.738;2022-10-14T09:31:58;6.80;;;3.97;;
10985;SDS011;5546;48.714;8.738;2022-10-14T09:34:35;5.27;;;4.47;;
10985;SDS011;5546;48.714;8.738;2022-10-14T09:39:46;7.07;;;3.70;;
10985;SDS011;5546;48.714;8.738;2022-10-14T09:42:17;6.67;;;3.80;;
10985;SDS011;5546;48.714;8.738;2022-10-14T09:44:58;4.23;;;3.47;;
10985;SDS011;5546;48.714;8.738;2022-10-14T09:47:39;5.13;;;3.73;;
10985;SDS011;5546;48.714;8.738;2022-10-14T09:50:19;12.40;;;3.43;;
10985;SDS011;5546;48.714;8.738;2022-10-14T09:53:13;5.33;;;3.73;;
10985;SDS011;5546;48.714;8.738;2022-10-14T09:55:53;5.20;;;3.23;;
10985;SDS011;5546;48.714;8.738;2022-10-14T09:58:42;4.93;;;3.50;;
10985;SDS011;5546;48.714;8.738;2022-10-14T10:01:15;5.37;;;3.90;;
10985;SDS011;5546;48.714;8.738;2022-10-14T10:03:43;7.20;;;3.90;;
10985;SDS011;5546;48.714;8.738;2022-10-14T10:06:10;6.10;;;3.77;;
10985;SDS011;5546;48.714;8.738;2022-10-14T10:08:39;6.57;;;3.60;;
10985;SDS011;5546;48.714;8.738;2022-10-14T10:11:27;4.63;;;3.20;;
10985;SDS011;5546;48.714;8.738;2022-10-14T10:16:47;6.00;;;3.43;;
10985;SDS011;5546;48.714;8.738;2022-10-14T10:19:23;6.13;;;3.77;;
10985;SDS011;5546;48.714;8.738;2022-10-14T10:22:14;6.97;;;3.80;;
10985;SDS011;5546;48.714;8.738;2022-10-14T10:24:48;6.50;;;3.80;;
10985;SDS011;5546;48.714;8.738;2022-10-14T10:32:45;4.33;;;3.73;;
10985;SDS011;5546;48.714;8.738;2022-10-14T10:35:25;5.60;;;3.77;;
10985;SDS011;5546;48.714;8.738;2022-10-14T10:38:12;7.17;;;4.00;;
10985;SDS011;5546;48.714;8.738;2022-10-14T10:44:00;4.97;;;4.13;;
10985;SDS011;5546;48.714;8.738;2022-10-14T10:52:30;5.67;;;4.03;;
10985;SDS011;5546;48.714;8.738;2022-10-14T11:00:47;5.67;;;4.20;;
10985;SDS011;5546;48.714;8.738;2022-10-14T11:03:31;7.10;;;4.60;;
10985;SDS011;5546;48.714;8.738;2022-10-14T11:06:07;8.77;;;4.73;;
10985;SDS011;5546;48.714;8.738;2022-10-14T11:09:02;5.73;;;4.07;;
10985;SDS011;5546;48.714;8.738;2022-10-14T11:17:10;7.73;;;4.00;;
10985;SDS011;5546;48.714;8.738;2022-10-14T11:19:51;6.37;;;3.97;;
10985;SDS011;5546;48.714;8.738;2022-10-14T11:22:40;8.83;;;4.00;;
10985;SDS011;5546;48.714;8.738;2022-10-14T11:30:17;5.10;;;3.60;;
10985;SDS011;5546;48.714;8.738;2022-10-14T11:33:01;6.05;;;3.80;;
10985;SDS011;5546;48.714;8.738;2022-10-14T11:35:54;5.80;;;3.97;;
10985;SDS011;5546;48.714;8.738;2022-10-14T11:44:23;5.68;;;3.67;;
10985;SDS011;5546;48.714;8.738;2022-10-14T11:46:58;5.63;;;3.65;;
10985;SDS011;5546;48.714;8.738;2022-10-14T11:49:35;5.85;;;2.78;;
10985;SDS011;5546;48.714;8.738;2022-10-14T11:52:23;4.88;;;3.20;;
10985;SDS011;5546;48.714;8.738;2022-10-14T11:54:59;4.63;;;2.97;;
10985;SDS011;5546;48.714;8.738;2022-10-14T11:57:43;4.15;;;2.70;;
10985;SDS011;5546;48.714;8.738;2022-10-14T12:00:14;4.00;;;2.65;;
10985;SDS011;5546;48.714;8.738;2022-10-14T12:11:45;3.45;;;2.63;;
10985;SDS011;5546;48.714;8.738;2022-10-14T12:14:19;3.92;;;2.42;;
10985;SDS011;5546;48.714;8.738;2022-10-14T12:16:57;3.45;;;2.50;;
10985;SDS011;5546;48.714;8.738;2022-10-14T12:19:25;4.03;;;2.45;;
10985;SDS011;5546;48.714;8.738;2022-10-14T12:24:20;2.70;;;2.03;;
10985;SDS011;5546;48.714;8.738;2022-10-14T12:26:50;2.88;;;2.10;;
10985;SDS011;5546;48.714;8.738;2022-10-14T12:34:40;2.58;;;2.08;;
10985;SDS011;5546;48.714;8.738;2022-10-14T12:39:48;2.30;;;1.70;;
10985;SDS011;5546;48.714;8.738;2022-10-14T12:42:18;1.85;;;1.50;;
10985;SDS011;5546;48.714;8.738;2022-10-14T12:44:47;2.63;;;1.97;;
10985;SDS011;5546;48.714;8.738;2022-10-14T12:47:26;2.90;;;1.90;;
10985;SDS011;5546;48.714;8.738;2022-10-14T12:49:56;2.08;;;1.70;;
10985;SDS011;5546;48.714;8.738;2022-10-14T12:52:32;2.28;;;1.65;;
10985;SDS011;5546;48.714;8.738;2022-10-14T12:55:00;3.75;;;1.50;;
10985;SDS011;5546;48.714;8.738;2022-10-14T12:57:34;3.63;;;1.60;;
10985;SDS011;5546;48.714;8.738;2022-10-14T13:00:03;1.63;;;1.48;;
10985;SDS011;5546;48.714;8.738;2022-10-14T13:02:44;2.00;;;1.40;;
10985;SDS011;5546;48.714;8.738;2022-10-14T13:18:52;3.03;;;1.50;;
10985;SDS011;5546;48.714;8.738;2022-10-14T13:21:25;1.97;;;1.43;;
10985;SDS011;5546;48.714;8.738;2022-10-14T13:24:16;2.70;;;1.70;;
10985;SDS011;5546;48.714;8.738;2022-10-14T13:32:15;3.17;;;1.77;;
10985;SDS011;5546;48.714;8.738;2022-10-14T13:38:13;2.80;;;2.20;;
10985;SDS011;5546;48.714;8.738;2022-10-14T13:40:44;4.73;;;1.83;;
10985;SDS011;5546;48.714;8.738;2022-10-14T13:43:20;4.33;;;1.80;;
10985;SDS011;5546;48.714;8.738;2022-10-14T13:48:31;3.27;;;1.90;;
10985;SDS011;5546;48.714;8.738;2022-10-14T13:51:28;3.60;;;1.90;;
10985;SDS011;5546;48.714;8.738;2022-10-14T13:54:24;1.97;;;1.80;;
10985;SDS011;5546;48.714;8.738;2022-10-14T13:57:02;2.40;;;2.00;;
10985;SDS011;5546;48.714;8.738;2022-10-14T13:59:43;3.93;;;2.03;;
10985;SDS011;5546;48.714;8.738;2022-10-14T14:02:14;2.67;;;2.40;;
10985;SDS011;5546;48.714;8.738;2022-10-14T14:04:44;3.73;;;2.40;;
10985;SDS011;5546;48.714;8.738;2022-10-14T14:07:17;2.70;;;2.10;;
10985;SDS011;5546;48.714;8.738;2022-10-14T14:09:49;5.47;;;2.40;;
10985;SDS011;5546;48.714;8.738;2022-10-14T14:12:17;3.83;;;2.60;;
10985;SDS011;5546;48.714;8.738;2022-10-14T14:14:44;3.87;;;2.23;;
10985;SDS011;5546;48.714;8.738;2022-10-14T14:17:12;3.67;;;2.20;;
10985;SDS011;5546;48.714;8.738;2022-10-14T14:19:42;2.50;;;2.30;;
10985;SDS011;5546;48.714;8.738;2022-10-14T14:24:49;5.40;;;2.10;;
10985;SDS011;5546;48.714;8.738;2022-10-14T14:27:22;2.27;;;2.07;;
10985;SDS011;5546;48.714;8.738;2022-10-14T14:29:51;3.93;;;2.23;;
10985;SDS011;5546;48.714;8.738;2022-10-14T14:32:19;6.77;;;2.17;;
10985;SDS011;5546;48.714;8.738;2022-10-14T14:34:47;4.77;;;2.20;;
10985;SDS011;5546;48.714;8.738;2022-10-14T14:37:24;3.83;;;2.13;;
10985;SDS011;5546;48.714;8.738;2022-10-14T14:42:20;3.63;;;1.80;;
10985;SDS011;5546;48.714;8.738;2022-10-14T14:44:47;2.10;;;1.80;;
10985;SDS011;5546;48.714;8.738;2022-10-14T14:47:14;3.47;;;2.00;;
10985;SDS011;5546;48.714;8.738;2022-10-14T14:49:39;3.77;;;2.30;;
10985;SDS011;5546;48.714;8.738;2022-10-14T14:52:05;4.00;;;1.90;;
10985;SDS011;5546;48.714;8.738;2022-10-14T14:54:31;2.57;;;2.13;;
10985;SDS011;5546;48.714;8.738;2022-10-14T14:57:01;3.00;;;1.80;;
10985;SDS011;5546;48.714;8.738;2022-10-14T14:59:33;2.10;;;1.80;;
10985;SDS011;5546;48.714;8.738;2022-10-14T15:02:12;2.23;;;1.70;;
10985;SDS011;5546;48.714;8.738;2022-10-14T15:04:40;2.37;;;1.70;;
10985;SDS011;5546;48.714;8.738;2022-10-14T15:07:10;3.63;;;1.87;;
10985;SDS011;5546;48.714;8.738;2022-10-14T15:14:45;2.63;;;1.93;;
10985;SDS011;5546;48.714;8.738;2022-10-14T15:22:37;3.70;;;2.30;;
10985;SDS011;5546;48.714;8.738;2022-10-14T15:30:20;3.57;;;2.03;;
10985;SDS011;5546;48.714;8.738;2022-10-14T15:33:14;3.43;;;2.13;;
10985;SDS011;5546;48.714;8.738;2022-10-14T15:35:42;5.27;;;4.00;;
10985;SDS011;5546;48.714;8.738;2022-10-14T15:38:10;6.23;;;5.47;;
10985;SDS011;5546;48.714;8.738;2022-10-14T15:40:37;6.17;;;3.27;;
10985;SDS011;5546;48.714;8.738;2022-10-14T15:43:07;6.77;;;4.47;;
10985;SDS011;5546;48.714;8.738;2022-10-14T15:45:36;3.37;;;2.83;;
10985;SDS011;5546;48.714;8.738;2022-10-14T15:48:01;5.63;;;3.80;;
10985;SDS011;5546;48.714;8.738;2022-10-14T15:50:38;6.00;;;2.63;;
10985;SDS011;5546;48.714;8.738;2022-10-14T15:53:08;5.27;;;2.60;;
10985;SDS011;5546;48.714;8.738;2022-10-14T15:55:34;4.60;;;2.40;;
10985;SDS011;5546;48.714;8.738;2022-10-14T15:58:00;4.83;;;2.87;;
10985;SDS011;5546;48.714;8.738;2022-10-14T16:00:27;6.57;;;2.23;;
10985;SDS011;5546;48.714;8.738;2022-10-14T16:02:53;4.83;;;2.00;;
10985;SDS011;5546;48.714;8.738;2022-10-14T16:05:22;8.63;;;7.90;;
10985;SDS011;5546;48.714;8.738;2022-10-14T16:07:48;5.47;;;2.40;;
10985;SDS011;5546;48.714;8.738;2022-10-14T16:10:15;4.97;;;2.30;;
10985;SDS011;5546;48.714;8.738;2022-10-14T16:12:43;3.63;;;2.80;;
10985;SDS011;5546;48.714;8.738;2022-10-14T16:15:14;7.70;;;3.80;;
10985;SDS011;5546;48.714;8.738;2022-10-14T16:17:42;4.30;;;2.90;;
10985;SDS011;5546;48.714;8.738;2022-10-14T16:20:08;4.27;;;2.50;;
10985;SDS011;5546;48.714;8.738;2022-10-14T16:22:35;3.40;;;2.30;;
10985;SDS011;5546;48.714;8.738;2022-10-14T16:25:01;6.33;;;2.30;;
10985;SDS011;5546;48.714;8.738;2022-10-14T16:27:27;5.33;;;2.57;;
10985;SDS011;5546;48.714;8.738;2022-10-14T16:29:52;4.27;;;3.03;;
10985;SDS011;5546;48.714;8.738;2022-10-14T16:32:18;4.57;;;3.63;;
10985;SDS011;5546;48.714;8.738;2022-10-14T16:34:43;2.47;;;2.00;;
10985;SDS011;5546;48.714;8.738;2022-10-14T16:37:09;4.53;;;3.73;;
10985;SDS011;5546;48.714;8.738;2022-10-14T16:39:35;5.30;;;2.43;;
10985;SDS011;5546;48.714;8.738;2022-10-14T16:42:02;5.20;;;2.10;;
10985;SDS011;5546;48.714;8.738;2022-10-14T16:44:27;3.00;;;2.20;;
10985;SDS011;5546;48.714;8.738;2022-10-14T16:46:54;5.63;;;1.67;;
10985;SDS011;5546;48.714;8.738;2022-10-14T16:49:41;4.70;;;4.17;;
10985;SDS011;5546;48.714;8.738;2022-10-14T16:52:08;2.43;;;1.90;;
10985;SDS011;5546;48.714;8.738;2022-10-14T16:54:33;2.27;;;1.80;;
10985;SDS011;5546;48.714;8.738;2022-10-14T16:56:59;4.40;;;2.00;;
10985;SDS011;5546;48.714;8.738;2022-10-14T16:59:25;1.70;;;1.60;;
10985;SDS011;5546;48.714;8.738;2022-10-14T17:01:52;1.30;;;1.20;;
10985;SDS011;5546;48.714;8.738;2022-10-14T17:04:18;2.37;;;1.63;;
10985;SDS011;5546;48.714;8.738;2022-10-14T17:06:45;2.57;;;1.30;;
10985;SDS011;5546;48.714;8.738;2022-10-14T17:09:12;4.30;;;1.70;;
10985;SDS011;5546;48.714;8.738;2022-10-14T17:11:39;2.53;;;1.10;;
10985;SDS011;5546;48.714;8.738;2022-10-14T17:14:06;5.13;;;1.47;;
10985;SDS011;5546;48.714;8.738;2022-10-14T17:16:32;3.13;;;1.10;;
10985;SDS011;5546;48.714;8.738;2022-10-14T17:18:57;2.33;;;0.97;;
10985;SDS011;5546;48.714;8.738;2022-10-14T17:21:23;2.00;;;1.30;;
10985;SDS011;5546;48.714;8.738;2022-10-14T17:23:53;2.33;;;1.00;;
10985;SDS011;5546;48.714;8.738;2022-10-14T17:26:20;2.13;;;1.10;;
10985;SDS011;5546;48.714;8.738;2022-10-14T17:28:46;3.80;;;1.60;;
10985;SDS011;5546;48.714;8.738;2022-10-14T17:31:16;2.60;;;1.60;;